Time;durP1;ratioP1;P1;durP2;ratioP2;P2;SDS_P1;SDS_P2;PMS_P1;PMS_P2;Temp;Humidity;BMP_temperature;BMP_pressure;BME280_temperature;BME280_humidity;BME280_pressure;Samples;Min_cycle;Max_cycle;Signal;HPM_P1;HPM_P2
2023/08/17 00:01:25;;;;;;;5.43;3.33;;;20.10;99.90;;;;;;5094821;28;20287;-72
2023/08/17 00:03:50;;;;;;;3.50;3.20;;;20.00;99.90;;;;;;5094471;28;20183;-72
2023/08/17 00:06:16;;;;;;;6.07;2.90;;;20.00;99.90;;;;;;5088285;28;20174;-70
2023/08/17 00:08:42;;;;;;;5.57;2.80;;;20.00;99.90;;;;;;5094204;28;20583;-69
2023/08/17 00:11:08;;;;;;;4.50;3.30;;;20.00;99.90;;;;;;5088869;28;20181;-69
2023/08/17 00:13:34;;;;;;;8.30;3.27;;;19.90;99.90;;;;;;5094874;28;20944;-70
2023/08/17 00:16:00;;;;;;;3.40;3.10;;;19.90;99.90;;;;;;5084661;28;20495;-72
2023/08/17 00:18:26;;;;;;;4.00;3.53;;;19.90;99.90;;;;;;5094262;28;20416;-73
2023/08/17 00:20:52;;;;;;;5.47;2.93;;;19.80;99.90;;;;;;5094164;28;20230;-71
2023/08/17 00:23:17;;;;;;;3.50;2.93;;;19.80;99.90;;;;;;5094148;28;20413;-72
2023/08/17 00:25:43;;;;;;;3.13;2.90;;;19.80;99.90;;;;;;5094018;28;20199;-72
2023/08/17 00:28:09;;;;;;;6.70;2.70;;;19.80;99.90;;;;;;5094033;28;20606;-70
2023/08/17 00:30:36;;;;;;;5.07;3.10;;;19.70;99.90;;;;;;5094132;28;20271;-69
2023/08/17 00:33:02;;;;;;;3.37;3.10;;;19.70;99.90;;;;;;5094065;28;20173;-71
2023/08/17 00:35:28;;;;;;;3.73;3.37;;;19.60;99.90;;;;;;5094444;28;20405;-71
2023/08/17 00:37:54;;;;;;;6.73;3.57;;;19.60;99.90;;;;;;5089019;28;20459;-70
2023/08/17 00:40:19;;;;;;;4.00;3.60;;;19.60;99.90;;;;;;5085936;28;20311;-70
2023/08/17 00:42:45;;;;;;;3.27;2.90;;;19.60;99.90;;;;;;5094083;28;20398;-70
2023/08/17 00:45:11;;;;;;;3.63;3.03;;;19.50;99.90;;;;;;5093937;28;20166;-71
2023/08/17 00:47:37;;;;;;;3.60;3.10;;;19.40;99.90;;;;;;5094471;28;20170;-71
2023/08/17 00:50:03;;;;;;;6.57;4.00;;;19.40;99.90;;;;;;5093610;28;20202;-72
2023/08/17 00:52:32;;;;;;;3.87;3.57;;;19.40;99.90;;;;;;5093119;28;20470;-71
2023/08/17 00:54:59;;;;;;;5.93;3.20;;;19.30;99.90;;;;;;5109474;28;20909;-70
2023/08/17 00:57:25;;;;;;;3.50;3.20;;;19.30;99.90;;;;;;5103153;28;20458;-71
2023/08/17 00:59:51;;;;;;;3.50;3.07;;;19.30;99.90;;;;;;5096745;28;20456;-70
2023/08/17 01:02:17;;;;;;;4.77;3.50;;;19.20;99.90;;;;;;5094890;28;20478;-72
2023/08/17 01:04:43;;;;;;;3.70;3.27;;;19.20;99.90;;;;;;5094182;28;20497;-71
2023/08/17 01:07:08;;;;;;;3.63;3.33;;;19.20;99.90;;;;;;5092760;28;20506;-71
2023/08/17 01:09:34;;;;;;;5.87;3.07;;;19.20;99.90;;;;;;5098736;28;20573;-71
2023/08/17 01:12:17;;;;;;;3.53;3.27;;;19.20;99.90;;;;;;5095827;28;20647;-71
2023/08/17 01:14:54;;;;;;;4.17;3.47;;;19.20;99.90;;;;;;5103650;28;20425;-71
2023/08/17 01:17:28;;;;;;;6.33;3.57;;;19.20;99.90;;;;;;5086911;28;20489;-70
2023/08/17 01:19:55;;;;;;;8.07;3.63;;;19.20;99.90;;;;;;5089463;28;20512;-70
2023/08/17 01:22:25;;;;;;;4.03;3.13;;;19.10;99.90;;;;;;5093742;28;20495;-70
2023/08/17 01:24:56;;;;;;;9.27;3.60;;;19.10;99.90;;;;;;5096041;28;20404;-72
2023/08/17 01:27:23;;;;;;;3.33;3.03;;;19.10;99.90;;;;;;5076358;28;20425;-70
2023/08/17 01:29:49;;;;;;;5.93;3.50;;;19.10;99.90;;;;;;5096575;28;20423;-70
2023/08/17 01:32:52;;;;;;;4.10;3.13;;;19.10;99.90;;;;;;5090631;28;20991;-69
2023/08/17 01:35:47;;;;;;;5.43;3.60;;;19.00;99.90;;;;;;5094139;28;20185;-71
2023/08/17 01:38:17;;;;;;;3.50;3.00;;;19.00;99.90;;;;;;5062710;28;20440;-70
2023/08/17 01:40:45;;;;;;;3.53;3.23;;;19.00;99.90;;;;;;5096465;28;20494;-71
2023/08/17 01:43:12;;;;;;;3.10;2.80;;;19.00;99.90;;;;;;5098053;28;20478;-71
2023/08/17 01:45:37;;;;;;;4.30;3.57;;;19.00;99.90;;;;;;5093130;28;20462;-71
2023/08/17 01:48:03;;;;;;;3.60;3.30;;;19.00;99.90;;;;;;5092455;28;20911;-70
2023/08/17 01:50:29;;;;;;;4.30;3.27;;;19.00;99.90;;;;;;5096521;28;20221;-70
2023/08/17 01:52:54;;;;;;;3.67;3.10;;;19.00;99.90;;;;;;5092849;28;20413;-71
2023/08/17 01:55:23;;;;;;;5.03;3.87;;;18.90;99.90;;;;;;5096149;28;20190;-71
2023/08/17 01:57:48;;;;;;;4.10;3.13;;;18.90;99.90;;;;;;5098983;28;20260;-71
2023/08/17 02:00:15;;;;;;;3.57;3.27;;;18.90;99.90;;;;;;5097680;28;20481;-71
2023/08/17 02:02:40;;;;;;;4.70;3.17;;;18.90;99.90;;;;;;5097786;28;20200;-72
2023/08/17 02:05:06;;;;;;;4.83;3.13;;;18.90;99.90;;;;;;5092633;28;20435;-72
2023/08/17 02:07:32;;;;;;;5.03;3.17;;;18.90;99.90;;;;;;5092287;28;20183;-71
2023/08/17 02:09:58;;;;;;;3.80;3.27;;;18.90;99.90;;;;;;5094078;28;20445;-71
2023/08/17 02:12:24;;;;;;;4.40;2.80;;;18.90;99.90;;;;;;5100038;28;20250;-71
2023/08/17 02:14:50;;;;;;;4.43;3.50;;;18.80;99.90;;;;;;5096633;28;20439;-72
2023/08/17 02:17:19;;;;;;;6.70;3.70;;;18.80;99.90;;;;;;5096189;28;20175;-72
2023/08/17 02:19:45;;;;;;;4.20;3.83;;;18.80;99.90;;;;;;5092650;28;20199;-72
2023/08/17 02:22:10;;;;;;;3.70;3.20;;;18.70;99.90;;;;;;5095414;28;20558;-71
2023/08/17 02:24:36;;;;;;;3.10;2.80;;;18.70;99.90;;;;;;5097906;28;20494;-72
2023/08/17 02:27:02;;;;;;;4.63;3.53;;;18.60;99.90;;;;;;5094789;28;20171;-71
2023/08/17 02:29:28;;;;;;;6.20;3.40;;;18.60;99.90;;;;;;5095693;28;20430;-70
2023/08/17 02:31:53;;;;;;;6.57;3.90;;;18.60;99.90;;;;;;5084871;28;20176;-70
2023/08/17 02:34:19;;;;;;;3.90;3.50;;;18.60;99.90;;;;;;5093965;28;20716;-72
2023/08/17 02:36:44;;;;;;;4.53;3.90;;;18.50;99.90;;;;;;5096698;28;20190;-71
2023/08/17 02:39:10;;;;;;;5.03;4.53;;;18.50;99.90;;;;;;5094594;28;20203;-70
2023/08/17 02:41:36;;;;;;;5.50;3.87;;;18.50;99.90;;;;;;5102869;28;20549;-71
2023/08/17 02:44:02;;;;;;;6.70;4.40;;;18.50;99.90;;;;;;5082567;28;20171;-71
2023/08/17 02:46:27;;;;;;;6.40;4.67;;;18.50;99.90;;;;;;5091658;28;20296;-71
2023/08/17 02:48:53;;;;;;;4.20;3.67;;;18.50;99.90;;;;;;5091655;28;20452;-70
2023/08/17 02:51:19;;;;;;;5.07;3.23;;;18.50;99.90;;;;;;5092831;28;20542;-72
2023/08/17 02:53:44;;;;;;;7.63;3.80;;;18.50;99.90;;;;;;5096320;28;20177;-71
2023/08/17 02:56:12;;;;;;;3.90;3.60;;;18.50;99.90;;;;;;5074723;28;20175;-70
2023/08/17 02:58:41;;;;;;;4.43;3.53;;;18.60;99.90;;;;;;5102021;28;20162;-71
2023/08/17 03:01:08;;;;;;;7.30;3.37;;;18.50;99.90;;;;;;5092721;28;20445;-69
2023/08/17 03:03:34;;;;;;;5.10;3.20;;;18.60;99.90;;;;;;5088020;28;20415;-70
2023/08/17 03:06:00;;;;;;;4.67;3.17;;;18.60;99.90;;;;;;5099662;28;20962;-70
2023/08/17 03:08:26;;;;;;;4.03;3.40;;;18.60;99.90;;;;;;5089627;28;20420;-71
2023/08/17 03:10:51;;;;;;;6.63;5.20;;;18.60;99.90;;;;;;5089977;28;20964;-70
2023/08/17 03:13:17;;;;;;;4.80;3.20;;;18.60;99.90;;;;;;5098766;28;20168;-70
2023/08/17 03:15:43;;;;;;;4.60;3.30;;;18.60;99.90;;;;;;5093541;28;20167;-71
2023/08/17 03:18:08;;;;;;;3.53;3.23;;;18.60;99.90;;;;;;5092869;28;20672;-71
2023/08/17 03:20:34;;;;;;;3.73;3.00;;;18.70;99.90;;;;;;5092025;28;20203;-71
2023/08/17 03:23:00;;;;;;;3.47;3.20;;;18.70;99.90;;;;;;5101182;28;20232;-71
2023/08/17 03:25:25;;;;;;;8.53;2.50;;;18.70;99.90;;;;;;5103312;28;20305;-72
2023/08/17 03:27:51;;;;;;;3.30;2.60;;;18.60;99.90;;;;;;5099477;28;20550;-72
2023/08/17 03:30:16;;;;;;;5.60;2.90;;;18.70;99.90;;;;;;5102324;28;20198;-71
2023/08/17 03:32:42;;;;;;;8.47;3.10;;;18.60;99.90;;;;;;5091390;28;20604;-72
2023/08/17 03:35:08;;;;;;;4.23;3.17;;;18.60;99.90;;;;;;5096558;28;20177;-72
2023/08/17 03:37:34;;;;;;;6.33;2.87;;;18.60;99.90;;;;;;5095052;28;20625;-70
2023/08/17 03:40:00;;;;;;;3.23;2.90;;;18.50;99.90;;;;;;5094700;28;20429;-72
2023/08/17 03:42:26;;;;;;;3.93;3.07;;;18.50;99.90;;;;;;5102856;28;20202;-71
2023/08/17 03:44:52;;;;;;;3.63;2.40;;;18.40;99.90;;;;;;5100980;28;20406;-71
2023/08/17 03:47:18;;;;;;;5.90;2.90;;;18.40;99.90;;;;;;5102094;28;20415;-71
2023/08/17 03:49:44;;;;;;;3.47;2.77;;;18.40;99.90;;;;;;5095597;28;20791;-72
2023/08/17 03:52:10;;;;;;;4.57;3.50;;;18.40;99.90;;;;;;5100981;28;20636;-72
2023/08/17 03:54:36;;;;;;;3.47;2.80;;;18.40;99.90;;;;;;5094699;28;20190;-71
2023/08/17 03:57:02;;;;;;;3.93;3.00;;;18.40;99.90;;;;;;5085123;28;20220;-74
2023/08/17 03:59:27;;;;;;;3.73;2.57;;;18.40;99.90;;;;;;5102299;28;20949;-75
2023/08/17 04:01:53;;;;;;;2.73;2.37;;;18.40;99.90;;;;;;5094547;28;21045;-71
2023/08/17 04:04:19;;;;;;;4.70;2.43;;;18.40;99.90;;;;;;5094919;28;20168;-73
2023/08/17 04:06:45;;;;;;;3.53;2.80;;;18.40;99.90;;;;;;5088928;28;20247;-73
2023/08/17 04:09:10;;;;;;;4.40;2.60;;;18.50;99.90;;;;;;5102457;28;20586;-72
2023/08/17 04:11:36;;;;;;;3.40;2.67;;;18.40;99.90;;;;;;5099403;28;20857;-72
2023/08/17 04:14:03;;;;;;;4.03;2.50;;;18.40;99.90;;;;;;5102868;28;20257;-72
2023/08/17 04:16:28;;;;;;;5.17;2.67;;;18.40;99.90;;;;;;5098555;28;20494;-73
2023/08/17 04:18:54;;;;;;;5.53;2.97;;;18.50;99.90;;;;;;5094533;28;20978;-72
2023/08/17 04:21:20;;;;;;;5.37;2.73;;;18.50;99.90;;;;;;5095597;28;20189;-72
2023/08/17 04:23:46;;;;;;;9.70;2.83;;;18.50;99.90;;;;;;5119846;22;20222;-69
2023/08/17 04:26:11;;;;;;;3.33;2.53;;;18.50;99.90;;;;;;5110283;28;20530;-71
2023/08/17 04:28:37;;;;;;;3.70;2.63;;;18.50;99.90;;;;;;5102146;28;20228;-71
2023/08/17 04:31:02;;;;;;;7.20;2.57;;;18.50;99.90;;;;;;5098291;28;20526;-72
2023/08/17 04:33:28;;;;;;;7.47;2.17;;;18.50;99.90;;;;;;5101435;28;20215;-71
2023/08/17 04:35:54;;;;;;;2.10;1.90;;;18.60;99.90;;;;;;5097331;28;20212;-70
2023/08/17 04:38:19;;;;;;;2.73;1.90;;;18.60;99.90;;;;;;5093312;28;20175;-69
2023/08/17 04:40:45;;;;;;;2.47;2.23;;;18.60;99.90;;;;;;5098514;28;20252;-69
2023/08/17 04:43:11;;;;;;;3.57;2.40;;;18.70;99.90;;;;;;5093530;28;20185;-69
2023/08/17 04:45:36;;;;;;;2.77;2.57;;;18.70;99.90;;;;;;5103641;28;20219;-69
2023/08/17 04:48:02;;;;;;;2.37;2.00;;;18.80;99.90;;;;;;5097589;28;20411;-70
2023/08/17 04:50:28;;;;;;;2.73;2.10;;;18.90;99.90;;;;;;5100408;28;20215;-69
2023/08/17 04:52:53;;;;;;;5.03;2.17;;;18.90;99.90;;;;;;5097748;28;20201;-69
2023/08/17 04:55:19;;;;;;;2.60;2.40;;;18.90;99.90;;;;;;5094753;28;20171;-70
2023/08/17 04:57:45;;;;;;;2.93;2.37;;;19.00;99.90;;;;;;5105015;28;20163;-70
2023/08/17 05:00:12;;;;;;;2.60;2.40;;;19.10;99.90;;;;;;5094362;28;20172;-70
2023/08/17 05:02:38;;;;;;;3.53;2.50;;;19.10;99.90;;;;;;5102152;28;20689;-70
2023/08/17 05:05:05;;;;;;;2.37;2.20;;;19.20;99.90;;;;;;5095406;28;20409;-69
2023/08/17 05:07:31;;;;;;;3.00;2.30;;;19.30;99.90;;;;;;5097061;28;20552;-71
2023/08/17 05:09:57;;;;;;;3.27;2.97;;;19.30;99.90;;;;;;5093126;28;20409;-70
2023/08/17 05:12:22;;;;;;;2.73;2.53;;;19.30;99.90;;;;;;5096556;28;20172;-69
2023/08/17 05:14:48;;;;;;;2.53;2.10;;;19.40;99.90;;;;;;5094473;28;20191;-69
2023/08/17 05:17:13;;;;;;;2.43;1.70;;;19.40;99.90;;;;;;5094169;28;20213;-70
2023/08/17 05:19:40;;;;;;;3.07;2.87;;;19.40;99.90;;;;;;5096998;28;20179;-69
2023/08/17 05:22:11;;;;;;;3.80;1.93;;;19.40;99.90;;;;;;5094194;28;20613;-69
2023/08/17 05:24:37;;;;;;;5.03;2.40;;;19.50;99.90;;;;;;5093125;28;20562;-70
2023/08/17 05:27:03;;;;;;;2.70;2.50;;;19.60;99.90;;;;;;5093031;28;20526;-70
2023/08/17 05:29:28;;;;;;;6.10;2.50;;;19.60;99.90;;;;;;5094336;28;20181;-70
2023/08/17 05:31:54;;;;;;;2.90;2.03;;;19.60;99.90;;;;;;5102748;28;20170;-71
2023/08/17 05:34:20;;;;;;;2.87;2.30;;;19.90;99.90;;;;;;5093383;28;20223;-70
2023/08/17 05:36:45;;;;;;;2.77;2.10;;;20.10;99.90;;;;;;5097444;28;20180;-70
2023/08/17 05:39:11;;;;;;;4.60;2.23;;;20.20;99.90;;;;;;5093668;28;20178;-69
2023/08/17 05:41:36;;;;;;;1.80;1.63;;;20.40;99.90;;;;;;5097403;28;20197;-70
2023/08/17 05:44:02;;;;;;;3.80;2.00;;;20.50;99.90;;;;;;5102510;28;20195;-69
2023/08/17 05:46:28;;;;;;;3.50;2.30;;;20.50;99.90;;;;;;5092685;28;20544;-70
2023/08/17 05:48:54;;;;;;;3.30;2.20;;;20.40;99.90;;;;;;5102285;28;20401;-70
2023/08/17 05:51:19;;;;;;;2.33;2.13;;;20.40;99.90;;;;;;5092868;28;20649;-70
2023/08/17 05:53:45;;;;;;;3.70;2.30;;;20.40;99.90;;;;;;5097195;28;21014;-70
2023/08/17 05:56:10;;;;;;;3.70;2.23;;;20.30;99.90;;;;;;5101843;28;20177;-69
2023/08/17 05:58:36;;;;;;;2.70;2.50;;;20.30;99.90;;;;;;5094461;28;20176;-70
2023/08/17 06:01:12;;;;;;;3.20;2.57;;;20.40;99.90;;;;;;5092138;28;20196;-70
2023/08/17 06:03:38;;;;;;;3.20;2.70;;;20.40;99.90;;;;;;5094430;28;20255;-69
2023/08/17 06:06:05;;;;;;;7.97;2.60;;;20.50;99.90;;;;;;5102594;28;20486;-69
2023/08/17 06:08:31;;;;;;;2.57;1.80;;;20.60;99.90;;;;;;5104678;28;20480;-69
2023/08/17 06:10:57;;;;;;;2.70;2.00;;;20.50;99.90;;;;;;5107937;28;20404;-69
2023/08/17 06:13:22;;;;;;;1.87;1.77;;;20.60;99.90;;;;;;5105344;28;20493;-69
2023/08/17 06:15:48;;;;;;;3.40;2.33;;;20.40;99.90;;;;;;5097303;28;20500;-70
2023/08/17 06:18:14;;;;;;;2.60;2.10;;;20.40;99.90;;;;;;5092340;28;20208;-70
2023/08/17 06:20:39;;;;;;;8.07;2.40;;;20.50;99.90;;;;;;5094015;28;20179;-70
2023/08/17 06:23:05;;;;;;;3.47;2.20;;;20.40;99.90;;;;;;5100411;28;20204;-70
2023/08/17 06:25:30;;;;;;;3.60;2.37;;;20.50;99.90;;;;;;5092350;28;20645;-70
2023/08/17 06:27:56;;;;;;;6.67;2.80;;;20.60;99.90;;;;;;5092054;28;20182;-70
2023/08/17 06:30:22;;;;;;;4.33;2.10;;;20.80;99.90;;;;;;5100373;28;20176;-70
2023/08/17 06:32:48;;;;;;;4.53;2.00;;;20.80;99.90;;;;;;5100481;28;20217;-70
2023/08/17 06:35:13;;;;;;;3.83;2.57;;;20.70;99.90;;;;;;5091992;28;20669;-69
2023/08/17 06:37:39;;;;;;;3.93;2.53;;;20.80;99.90;;;;;;5090099;28;20176;-70
2023/08/17 06:40:05;;;;;;;3.60;2.47;;;20.70;99.90;;;;;;5101267;28;20169;-71
2023/08/17 06:42:32;;;;;;;4.70;2.83;;;20.70;99.90;;;;;;5090320;28;20743;-70
2023/08/17 06:44:57;;;;;;;6.80;3.53;;;20.60;99.90;;;;;;5094710;28;20424;-70
2023/08/17 06:47:23;;;;;;;6.03;2.53;;;20.60;99.90;;;;;;5091968;28;20985;-70
2023/08/17 06:49:49;;;;;;;2.83;2.60;;;20.80;99.90;;;;;;5091780;28;20234;-70
2023/08/17 06:52:15;;;;;;;6.10;3.17;;;21.00;99.90;;;;;;5091852;28;20655;-70
2023/08/17 06:54:40;;;;;;;2.93;2.50;;;21.20;99.90;;;;;;5091416;28;20448;-70
2023/08/17 06:57:06;;;;;;;4.97;2.70;;;21.10;99.90;;;;;;5092046;28;20176;-70
2023/08/17 06:59:35;;;;;;;4.33;2.47;;;21.10;99.90;;;;;;5095657;28;20186;-71
2023/08/17 07:02:01;;;;;;;3.57;2.40;;;21.20;99.90;;;;;;5097166;28;20203;-69
2023/08/17 07:04:26;;;;;;;3.17;2.90;;;21.10;99.90;;;;;;5095738;28;20977;-69
2023/08/17 07:06:52;;;;;;;2.73;2.53;;;21.30;99.90;;;;;;5102347;28;20421;-69
2023/08/17 07:09:18;;;;;;;5.30;2.53;;;21.40;99.90;;;;;;5095667;28;20174;-69
2023/08/17 07:11:44;;;;;;;5.87;3.90;;;21.50;99.90;;;;;;5101578;28;20254;-69
2023/08/17 07:14:09;;;;;;;6.30;4.20;;;21.60;99.90;;;;;;5097629;28;20522;-70
2023/08/17 07:16:35;;;;;;;5.37;3.70;;;21.90;99.90;;;;;;5095480;28;20323;-70
2023/08/17 07:19:01;;;;;;;9.80;8.23;;;21.90;99.90;;;;;;5096515;28;20177;-69
2023/08/17 07:21:27;;;;;;;5.60;4.83;;;21.80;99.90;;;;;;5099221;28;20534;-70
2023/08/17 07:23:54;;;;;;;4.13;2.83;;;21.70;99.90;;;;;;5101501;28;20516;-70
2023/08/17 07:26:20;;;;;;;3.03;2.80;;;21.60;99.90;;;;;;5090271;28;20520;-70
2023/08/17 07:28:46;;;;;;;5.80;3.70;;;21.50;99.90;;;;;;5094904;28;20460;-73
2023/08/17 07:31:12;;;;;;;2.73;2.53;;;21.50;99.90;;;;;;5105166;28;20421;-70
2023/08/17 07:33:39;;;;;;;2.80;2.50;;;21.40;99.90;;;;;;5100838;28;20441;-70
2023/08/17 07:36:04;;;;;;;3.87;2.60;;;21.50;99.90;;;;;;5092453;28;20181;-70
2023/08/17 07:38:30;;;;;;;3.73;3.40;;;21.60;99.90;;;;;;5096238;28;20491;-70
2023/08/17 07:40:56;;;;;;;12.33;9.53;;;21.70;99.90;;;;;;5099242;28;20724;-70
2023/08/17 07:43:22;;;;;;;3.20;2.90;;;21.70;99.90;;;;;;5096547;28;20218;-70
2023/08/17 07:45:57;;;;;;;6.53;4.40;;;21.60;99.90;;;;;;5100452;28;20161;-70
2023/08/17 07:48:22;;;;;;;5.13;3.20;;;21.60;99.90;;;;;;5094963;28;20668;-70
2023/08/17 07:50:52;;;;;;;4.33;3.70;;;21.70;99.90;;;;;;5094554;28;20439;-70
2023/08/17 07:53:19;;;;;;;2.70;2.50;;;21.80;99.90;;;;;;5092108;28;20197;-70
2023/08/17 07:55:45;;;;;;;4.90;4.00;;;22.10;99.90;;;;;;5105621;28;20407;-70
2023/08/17 07:58:10;;;;;;;3.10;2.73;;;22.00;99.90;;;;;;5097092;28;20463;-70
2023/08/17 08:00:36;;;;;;;3.60;2.27;;;22.00;99.90;;;;;;5098542;28;20176;-70
2023/08/17 08:03:01;;;;;;;4.70;3.23;;;22.00;99.90;;;;;;5095531;28;20227;-70
2023/08/17 08:05:27;;;;;;;3.50;2.90;;;22.20;99.90;;;;;;5097952;28;20184;-70
2023/08/17 08:07:53;;;;;;;5.93;3.10;;;22.40;99.90;;;;;;5101718;28;20187;-70
2023/08/17 08:10:19;;;;;;;3.00;2.70;;;22.50;99.90;;;;;;5095271;28;20179;-70
2023/08/17 08:12:44;;;;;;;5.40;2.57;;;22.60;99.90;;;;;;5102762;28;20177;-70
2023/08/17 08:15:10;;;;;;;7.50;2.70;;;22.60;99.90;;;;;;5093678;28;20177;-70
2023/08/17 08:17:36;;;;;;;3.10;2.80;;;22.70;99.90;;;;;;5100158;28;20189;-69
2023/08/17 08:20:02;;;;;;;12.23;5.87;;;22.90;99.90;;;;;;5091082;28;20185;-70
2023/08/17 08:22:28;;;;;;;3.70;3.30;;;22.90;99.90;;;;;;5094138;28;20497;-74
2023/08/17 08:24:54;;;;;;;4.33;2.70;;;23.40;99.90;;;;;;5102674;28;20478;-73
2023/08/17 08:27:19;;;;;;;4.30;3.00;;;24.00;99.90;;;;;;5096521;28;20187;-72
2023/08/17 08:29:45;;;;;;;5.83;3.17;;;24.60;99.90;;;;;;5098701;28;20237;-70
2023/08/17 08:32:11;;;;;;;4.30;3.50;;;24.80;99.90;;;;;;5102075;28;20179;-70
2023/08/17 08:34:36;;;;;;;3.80;3.27;;;25.10;99.90;;;;;;5095386;28;20692;-70
2023/08/17 08:37:02;;;;;;;3.37;2.70;;;25.10;99.90;;;;;;5101843;28;20264;-69
2023/08/17 08:39:28;;;;;;;4.57;2.93;;;25.10;99.90;;;;;;5088807;28;20647;-70
2023/08/17 08:41:54;;;;;;;4.73;3.57;;;24.80;99.90;;;;;;5095093;28;20206;-71
2023/08/17 08:44:20;;;;;;;4.37;2.90;;;24.60;99.90;;;;;;5099802;28;20198;-70
2023/08/17 08:46:46;;;;;;;4.50;3.03;;;24.10;99.90;;;;;;5098330;28;20464;-69
2023/08/17 08:49:14;;;;;;;6.33;5.17;;;23.80;99.90;;;;;;5093376;28;20410;-70
2023/08/17 08:51:44;;;;;;;5.33;4.20;;;23.60;99.90;;;;;;5088291;28;20757;-71
2023/08/17 08:54:13;;;;;;;9.20;4.83;;;23.40;99.90;;;;;;5095673;28;20438;-69
2023/08/17 08:56:44;;;;;;;5.63;5.00;;;23.10;99.90;;;;;;5098184;28;20527;-71
2023/08/17 08:59:11;;;;;;;4.40;3.40;;;22.80;99.90;;;;;;5093245;28;20497;-71
2023/08/17 09:01:38;;;;;;;4.47;3.20;;;22.70;99.90;;;;;;5101208;28;20994;-69
2023/08/17 09:04:05;;;;;;;9.33;3.03;;;22.70;99.90;;;;;;5095468;28;20527;-69
2023/08/17 09:06:31;;;;;;;3.37;3.07;;;22.70;99.90;;;;;;5096329;28;20407;-69
2023/08/17 09:08:58;;;;;;;5.43;3.70;;;22.50;99.90;;;;;;5093486;28;20735;-70
2023/08/17 09:11:24;;;;;;;4.03;3.17;;;22.60;99.90;;;;;;5098457;28;20411;-70
2023/08/17 09:13:50;;;;;;;6.80;5.30;;;22.60;99.90;;;;;;5098034;28;20533;-70
2023/08/17 09:16:15;;;;;;;11.40;4.27;;;22.50;99.90;;;;;;5101975;28;20421;-70
2023/08/17 09:18:42;;;;;;;4.70;4.30;;;22.30;99.90;;;;;;5100203;28;20444;-69
2023/08/17 09:21:07;;;;;;;9.03;5.90;;;22.30;99.90;;;;;;5093809;28;20200;-69
2023/08/17 09:23:33;;;;;;;4.67;3.60;;;22.40;99.90;;;;;;5095235;28;20454;-69
2023/08/17 09:26:08;;;;;;;5.80;5.23;;;22.40;99.90;;;;;;5095665;28;20176;-69
2023/08/17 09:28:38;;;;;;;7.63;5.67;;;22.50;99.90;;;;;;5094247;28;20654;-69
2023/08/17 09:31:04;;;;;;;3.33;3.10;;;22.60;99.90;;;;;;5102381;28;20765;-70
2023/08/17 09:33:30;;;;;;;5.80;4.10;;;22.80;99.90;;;;;;5099446;28;20428;-70
2023/08/17 09:35:57;;;;;;;5.30;4.80;;;22.90;99.90;;;;;;5093539;28;20185;-69
2023/08/17 09:38:23;;;;;;;6.27;5.43;;;23.00;99.90;;;;;;5093325;28;20448;-70
2023/08/17 09:40:49;;;;;;;4.63;3.80;;;23.10;99.90;;;;;;5095686;28;20408;-69
2023/08/17 09:43:16;;;;;;;4.13;3.73;;;23.10;99.90;;;;;;5099593;28;20200;-70
2023/08/17 09:45:47;;;;;;;3.40;3.00;;;23.10;99.90;;;;;;5099299;28;20421;-70
2023/08/17 09:48:18;;;;;;;4.83;3.90;;;23.20;99.90;;;;;;5093555;28;20959;-70
2023/08/17 09:50:45;;;;;;;3.53;3.30;;;23.10;99.90;;;;;;5106290;28;20410;-70
2023/08/17 09:53:15;;;;;;;5.00;3.60;;;23.20;99.90;;;;;;5095464;28;20868;-70
2023/08/17 09:55:42;;;;;;;4.83;3.63;;;23.40;99.90;;;;;;5087005;28;20396;-70
2023/08/17 09:58:08;;;;;;;6.40;3.57;;;23.40;99.90;;;;;;5092160;28;20404;-70
2023/08/17 10:00:35;;;;;;;4.60;3.70;;;23.40;99.90;;;;;;5096943;28;20897;-71
2023/08/17 10:03:04;;;;;;;5.40;3.33;;;23.40;99.90;;;;;;5093657;28;20750;-69
2023/08/17 10:05:38;;;;;;;4.17;3.30;;;23.50;99.90;;;;;;5092226;28;20954;-71
2023/08/17 10:08:06;;;;;;;3.43;3.13;;;23.60;99.90;;;;;;5092448;28;20402;-70
2023/08/17 10:10:35;;;;;;;4.50;4.10;;;23.70;99.90;;;;;;5087691;28;20958;-70
2023/08/17 10:13:06;;;;;;;4.60;3.13;;;23.70;99.90;;;;;;5102615;28;20436;-70
2023/08/17 10:15:36;;;;;;;4.03;3.63;;;23.70;99.90;;;;;;5091860;28;20407;-70
2023/08/17 10:18:46;;;;;;;7.60;5.17;;;23.60;99.90;;;;;;5091563;28;20776;-70
2023/08/17 10:21:23;;;;;;;10.90;3.47;;;23.50;99.90;;;;;;5049896;28;20968;-70
2023/08/17 10:23:48;;;;;;;3.67;3.37;;;23.40;99.90;;;;;;5089724;28;20470;-71
2023/08/17 10:26:15;;;;;;;5.13;4.63;;;23.30;99.90;;;;;;5094903;28;20418;-70
2023/08/17 10:28:41;;;;;;;5.70;4.10;;;23.10;99.90;;;;;;5091573;28;20521;-69
2023/08/17 10:31:07;;;;;;;6.23;3.43;;;23.00;99.90;;;;;;5101838;28;20907;-70
2023/08/17 10:33:33;;;;;;;3.60;3.30;;;23.00;99.90;;;;;;5098966;28;20436;-70
2023/08/17 10:36:01;;;;;;;8.03;7.00;;;23.00;99.90;;;;;;5095202;28;20419;-70
2023/08/17 10:38:26;;;;;;;20.17;14.63;;;23.10;99.90;;;;;;5101722;28;20414;-70
2023/08/17 10:41:12;;;;;;;9.93;8.50;;;23.30;99.90;;;;;;5097558;28;20492;-70
2023/08/17 10:43:59;;;;;;;10.30;6.33;;;23.50;99.90;;;;;;5095522;28;20188;-70
2023/08/17 10:46:36;;;;;;;6.93;5.30;;;24.00;99.90;;;;;;5092449;28;20411;-68
2023/08/17 10:49:06;;;;;;;4.23;3.80;;;24.20;99.90;;;;;;5097611;28;20745;-70
2023/08/17 10:51:32;;;;;;;6.67;6.00;;;24.30;99.90;;;;;;5092239;28;20412;-69
2023/08/17 10:54:05;;;;;;;4.00;3.37;;;24.40;99.90;;;;;;5091266;28;20987;-70
2023/08/17 10:56:30;;;;;;;4.33;4.00;;;24.50;99.90;;;;;;5091585;28;20411;-70
2023/08/17 10:59:01;;;;;;;4.17;3.70;;;24.70;99.90;;;;;;5093320;28;20427;-70
2023/08/17 11:01:38;;;;;;;15.93;8.83;;;24.80;99.90;;;;;;5099102;28;20634;-70
2023/08/17 11:04:17;;;;;;;9.47;7.00;;;24.90;99.90;;;;;;5091602;28;20425;-70
2023/08/17 11:06:44;;;;;;;5.17;4.43;;;24.60;99.90;;;;;;5098164;28;20828;-70
2023/08/17 11:09:10;;;;;;;4.70;4.37;;;24.60;99.90;;;;;;5091217;28;20415;-70
2023/08/17 11:11:35;;;;;;;5.87;5.27;;;24.80;99.90;;;;;;5096969;28;20419;-70
2023/08/17 11:14:01;;;;;;;5.40;4.90;;;24.60;99.90;;;;;;5093331;28;20231;-70
2023/08/17 11:16:27;;;;;;;7.33;5.70;;;24.20;99.90;;;;;;5080622;28;20284;-70
2023/08/17 11:18:52;;;;;;;5.87;5.20;;;24.10;99.90;;;;;;5092280;28;20184;-70
2023/08/17 11:21:19;;;;;;;5.27;4.77;;;24.30;99.90;;;;;;5095220;28;20204;-70
2023/08/17 11:23:45;;;;;;;6.60;6.00;;;24.30;99.90;;;;;;5097537;28;20700;-71
2023/08/17 11:26:10;;;;;;;7.00;6.30;;;24.20;99.90;;;;;;5094806;28;20420;-70
2023/08/17 11:28:36;;;;;;;15.03;9.80;;;24.10;99.90;;;;;;5092350;28;20185;-70
2023/08/17 11:31:04;;;;;;;5.80;5.37;;;24.20;99.90;;;;;;5099273;28;20208;-70
2023/08/17 11:33:31;;;;;;;4.73;3.93;;;24.00;99.90;;;;;;5098308;28;20201;-69
2023/08/17 11:35:58;;;;;;;6.63;4.40;;;24.10;99.90;;;;;;5094083;28;20418;-70
2023/08/17 11:38:26;;;;;;;8.87;8.03;;;24.50;99.90;;;;;;5095024;28;20906;-69
2023/08/17 11:40:52;;;;;;;5.90;5.40;;;24.60;99.90;;;;;;5097403;28;20418;-70
2023/08/17 11:43:20;;;;;;;6.80;6.10;;;24.70;99.90;;;;;;5098979;28;20428;-69
2023/08/17 11:45:46;;;;;;;4.03;3.60;;;24.90;99.90;;;;;;5099487;28;20980;-70
2023/08/17 11:48:11;;;;;;;3.87;3.57;;;25.10;99.90;;;;;;5099151;28;20409;-70
2023/08/17 11:50:39;;;;;;;5.40;4.90;;;25.00;99.90;;;;;;5100554;28;20175;-71
2023/08/17 11:53:04;;;;;;;11.00;4.97;;;25.00;99.90;;;;;;5095063;28;20203;-70
2023/08/17 11:55:30;;;;;;;5.17;4.20;;;24.90;99.90;;;;;;5100540;28;20969;-70
2023/08/17 11:57:55;;;;;;;6.30;5.73;;;24.70;99.90;;;;;;5094839;28;20181;-70
2023/08/17 12:00:22;;;;;;;3.87;3.57;;;24.90;99.90;;;;;;5099353;28;20200;-70
2023/08/17 12:02:49;;;;;;;7.00;4.13;;;24.90;99.90;;;;;;5094701;28;20199;-71
2023/08/17 12:05:20;;;;;;;6.83;5.97;;;25.20;99.90;;;;;;5095742;28;20454;-70
2023/08/17 12:07:46;;;;;;;9.37;8.00;;;25.60;99.90;;;;;;5099033;28;20410;-70
2023/08/17 12:10:11;;;;;;;12.77;11.50;;;25.70;99.90;;;;;;5097326;28;20468;-70
2023/08/17 12:12:39;;;;;;;4.10;3.80;;;25.70;99.90;;;;;;5100140;28;20177;-70
2023/08/17 12:15:05;;;;;;;4.67;4.27;;;25.70;99.90;;;;;;5094666;28;20587;-70
2023/08/17 12:17:30;;;;;;;4.67;4.27;;;25.80;99.90;;;;;;5109715;28;20745;-70
2023/08/17 12:19:58;;;;;;;5.90;5.27;;;25.80;99.90;;;;;;5110905;28;20796;-71
2023/08/17 12:22:25;;;;;;;6.80;5.80;;;25.90;99.90;;;;;;5107742;28;20204;-71
2023/08/17 12:24:52;;;;;;;4.67;4.27;;;26.00;99.90;;;;;;5106027;28;20469;-69
2023/08/17 12:27:18;;;;;;;5.13;4.83;;;26.00;99.90;;;;;;5094012;28;20501;-70
2023/08/17 12:29:48;;;;;;;7.00;5.97;;;26.00;99.90;;;;;;5101150;28;20410;-71
2023/08/17 12:32:15;;;;;;;5.47;4.97;;;26.20;99.90;;;;;;5103748;28;20494;-71
2023/08/17 12:34:41;;;;;;;4.60;4.20;;;26.30;99.90;;;;;;5093804;28;20529;-71
2023/08/17 12:37:11;;;;;;;4.40;4.10;;;26.00;99.90;;;;;;5093605;28;20489;-71
2023/08/17 12:39:37;;;;;;;5.63;4.90;;;25.80;99.90;;;;;;5093793;28;20201;-71
2023/08/17 12:42:03;;;;;;;7.73;4.90;;;26.00;99.90;;;;;;5096308;28;20784;-71
2023/08/17 12:44:29;;;;;;;5.10;4.60;;;26.00;99.90;;;;;;5093521;28;20208;-71